CA-0633 weather

CLOSED Calgary Broadcast House Helipad
Calgary, Alberta, Canada

Public forecast

Using degrees Celsius for public forecast. Weather courtesy of forecast.io.

Closest aviation weather report (METAR) to Calgary Broadcast House Helipad

Closest report is Calgary International Airport, 6.6 nm (12.2 km) ENE. Retrieved 2019/12/12 05:00 UTC (43 minutes ago):

CYYC 120500Z 18007KT 2SM BR BKN200 M11/M13 A2974 RMK FG2CS5 SLP147

Closest aviation forecast (TAF) to Calgary Broadcast House Helipad

Closest forecast is Calgary International Airport, 6.6 nm (12.2 km) ENE. Retrieved 2019-12-12 03:53 UTC (2 hours ago):

TAF CYYC 120249Z 1203/1224 18008KT 1SM BR OVC003 TEMPO 1203/1205 2SM BR SCT003 OVC005 FM120500 19005KT 1/2SM FZFG VV002 TEMPO 1205/1213 11/2SM BR OVC004 PROB30 1208/1211 1/8SM FZFG VV001 BECMG 1213/1215 4SM BR BKN005 FM121500 21004KT 5SM BR SCT004 BECMG 1215/1217 P6SM NSW SCT100 FM121700 VRB03KT P6SM BKN090 BECMG 1221/1223 03005KT FEW008 BKN090 FM122300 03005KT 5SM BR BKN008 RMK NXT FCST BY 120600Z